Time;durP1;ratioP1;P1;durP2;ratioP2;P2;SDS_P1;SDS_P2;PMS_P1;PMS_P2;Temp;Humidity;BMP_temperature;BMP_pressure;BME280_temperature;BME280_humidity;BME280_pressure;Samples;Min_cycle;Max_cycle;Signal;HPM_P1;HPM_P2
2023/01/08 00:00:52;;;;;;;6.90;3.77;;;;;;;11.20;70.28;99932.38;5027140;28;20215;-66
2023/01/08 00:03:20;;;;;;;7.30;4.40;;;;;;;11.26;70.28;99929.03;5031241;28;20790;-65
2023/01/08 00:05:48;;;;;;;7.10;3.93;;;;;;;11.22;70.45;99927.72;5024464;28;20258;-65
2023/01/08 00:08:17;;;;;;;5.97;3.63;;;;;;;11.27;70.38;99925.38;5028627;28;20251;-65
2023/01/08 00:10:45;;;;;;;6.87;3.93;;;;;;;11.26;70.53;99915.78;5024547;28;20220;-65
2023/01/08 00:13:13;;;;;;;6.70;3.90;;;;;;;11.26;70.64;99915.78;5028941;28;20211;-68
2023/01/08 00:15:41;;;;;;;7.80;4.00;;;;;;;11.27;70.53;99912.13;5028612;28;20664;-66
2023/01/08 00:18:08;;;;;;;7.47;4.07;;;;;;;11.29;70.46;99903.00;5027819;28;20211;-63
2023/01/08 00:20:36;;;;;;;8.80;4.50;;;;;;;11.26;70.91;99898.03;5027358;28;20316;-64
2023/01/08 00:23:04;;;;;;;6.60;3.60;;;;;;;11.32;70.70;99894.72;5027402;28;20226;-64
2023/01/08 00:25:33;;;;;;;6.43;3.80;;;;;;;11.28;70.85;99900.50;5026538;28;20228;-64
2023/01/08 00:28:00;;;;;;;6.50;4.40;;;;;;;11.31;70.89;99897.53;5029081;28;20223;-66
2023/01/08 00:30:29;;;;;;;6.43;4.23;;;;;;;11.29;71.09;99891.56;5028424;28;20273;-64
2023/01/08 00:32:56;;;;;;;7.07;3.93;;;;;;;11.23;71.67;99873.66;5027564;28;20299;-64
2023/01/08 00:35:24;;;;;;;9.03;3.77;;;;;;;11.23;71.87;99877.16;5027288;28;20558;-64
2023/01/08 00:37:52;;;;;;;7.27;4.20;;;;;;;11.25;71.99;99871.69;5028245;28;20301;-64
2023/01/08 00:40:20;;;;;;;7.87;4.07;;;;;;;11.20;72.23;99880.13;5030022;28;20211;-66
2023/01/08 00:42:49;;;;;;;6.17;3.53;;;;;;;11.21;72.28;99884.44;5022641;28;20343;-64
2023/01/08 00:45:16;;;;;;;7.67;3.77;;;;;;;11.23;72.31;99873.66;5024906;28;20672;-63
2023/01/08 00:47:44;;;;;;;7.57;3.80;;;;;;;11.22;72.58;99864.03;5029218;28;20212;-64
2023/01/08 00:50:12;;;;;;;8.17;4.13;;;;;;;11.25;72.25;99866.38;5028895;28;20204;-64
2023/01/08 00:52:40;;;;;;;6.00;3.53;;;;;;;11.26;72.08;99863.53;5032692;28;20212;-64
2023/01/08 00:55:08;;;;;;;6.57;3.87;;;;;;;11.26;72.23;99866.16;5030993;28;20234;-64
2023/01/08 00:57:38;;;;;;;5.50;3.93;;;;;;;11.29;72.11;99865.03;5030821;28;20751;-64
2023/01/08 01:00:12;;;;;;;7.13;4.10;;;;;;;11.31;72.08;99874.47;5030370;28;20208;-63
2023/01/08 01:02:41;;;;;;;5.93;3.67;;;;;;;11.28;71.97;99876.63;5027483;28;20281;-62
2023/01/08 01:05:09;;;;;;;9.30;4.40;;;;;;;11.27;71.88;99878.44;5026968;28;20223;-66
2023/01/08 01:07:37;;;;;;;8.10;5.10;;;;;;;11.27;71.75;99885.59;5028297;28;20222;-63
2023/01/08 01:10:06;;;;;;;6.47;4.30;;;;;;;11.31;71.41;99876.31;5026612;28;20237;-67
2023/01/08 01:12:33;;;;;;;7.20;4.63;;;;;;;11.23;71.37;99877.16;5024195;28;20211;-67
2023/01/08 01:15:01;;;;;;;9.43;4.80;;;;;;;11.23;71.69;99873.66;5026359;28;20575;-64
2023/01/08 01:17:30;;;;;;;10.63;5.40;;;;;;;11.17;71.75;99871.69;5029480;28;20569;-65
2023/01/08 01:19:58;;;;;;;7.50;4.43;;;;;;;11.15;72.00;99869.19;5026909;28;20215;-63
2023/01/08 01:22:25;;;;;;;7.43;5.00;;;;;;;11.14;72.31;99869.34;5024301;28;20337;-68
2023/01/08 01:24:53;;;;;;;8.33;5.03;;;;;;;11.15;72.40;99869.19;5029641;28;20207;-65
2023/01/08 01:27:21;;;;;;;8.83;5.20;;;;;;;11.21;72.47;99873.00;5024211;28;20231;-64
2023/01/08 01:29:49;;;;;;;11.73;5.10;;;;;;;11.21;73.04;99888.91;5025585;28;20235;-65
2023/01/08 01:32:16;;;;;;;9.60;4.60;;;;;;;11.19;74.06;99889.06;5026617;28;20218;-68
2023/01/08 01:34:46;;;;;;;8.30;5.33;;;;;;;11.19;74.84;99886.41;5027694;28;20238;-64
2023/01/08 01:37:14;;;;;;;11.23;5.50;;;;;;;11.20;75.25;99892.56;5021122;28;20213;-66
2023/01/08 01:39:43;;;;;;;10.63;5.77;;;;;;;11.15;76.33;99884.28;5022342;28;20206;-63
2023/01/08 01:42:38;;;;;;;8.63;5.43;;;;;;;11.04;77.35;99881.94;5025949;28;20224;-64
2023/01/08 01:45:03;;;;;;;8.33;5.43;;;;;;;11.02;78.33;99878.63;5023983;28;20207;-68
2023/01/08 01:47:35;;;;;;;9.07;5.73;;;;;;;10.91;79.48;99880.59;5023297;28;20248;-65
2023/01/08 01:50:08;;;;;;;9.07;6.17;;;;;;;10.91;79.35;99877.13;5025343;28;20232;-65
2023/01/08 01:52:40;;;;;;;10.87;5.83;;;;;;;10.90;79.43;99876.31;5024122;28;20214;-66
2023/01/08 01:55:11;;;;;;;8.37;5.80;;;;;;;10.87;80.14;99871.31;5025723;28;20929;-65
2023/01/08 01:57:39;;;;;;;8.97;5.60;;;;;;;10.79;80.58;99873.13;5024302;28;20230;-65
2023/01/08 02:00:09;;;;;;;9.87;6.27;;;;;;;10.74;81.35;99867.47;5024924;28;20215;-66
2023/01/08 02:02:37;;;;;;;8.97;5.97;;;;;;;10.71;81.84;99866.00;5026982;28;20917;-63
2023/01/08 02:05:08;;;;;;;9.37;6.10;;;;;;;10.63;82.39;99858.03;5024963;28;20632;-63
2023/01/08 02:07:43;;;;;;;10.97;7.07;;;;;;;10.65;82.48;99860.50;5022314;28;20267;-62
2023/01/08 02:10:16;;;;;;;11.80;6.90;;;;;;;10.62;83.04;99855.56;5026306;28;20256;-64
2023/01/08 02:12:51;;;;;;;12.50;6.70;;;;;;;10.64;83.22;99849.09;5022048;28;20301;-64
2023/01/08 02:15:23;;;;;;;11.57;6.20;;;;;;;10.65;83.80;99855.19;5021518;28;20205;-67
2023/01/08 02:17:58;;;;;;;11.80;7.03;;;;;;;10.58;84.30;99852.38;5028022;28;20198;-68
2023/01/08 02:20:32;;;;;;;11.30;6.60;;;;;;;10.59;84.58;99854.03;5030410;28;20207;-64
2023/01/08 02:23:23;;;;;;;11.90;6.90;;;;;;;10.56;85.44;99851.72;5027587;28;20651;-66
2023/01/08 02:26:19;;;;;;;10.00;6.80;;;;;;;10.52;85.61;99848.56;5026962;28;20227;-65
2023/01/08 02:28:53;;;;;;;12.47;6.67;;;;;;;10.56;85.57;99851.72;5021699;28;21186;-66
2023/01/08 02:31:23;;;;;;;9.67;6.53;;;;;;;10.46;86.02;99851.06;5031501;28;20217;-65
2023/01/08 02:33:51;;;;;;;9.40;6.40;;;;;;;10.43;87.03;99860.16;5027346;28;20249;-69
2023/01/08 02:36:43;;;;;;;10.23;6.70;;;;;;;10.48;86.66;99854.34;5023357;28;20208;-64
2023/01/08 02:39:20;;;;;;;12.30;6.80;;;;;;;10.47;85.99;99842.06;5013430;28;20205;-66
2023/01/08 02:42:00;;;;;;;10.93;6.63;;;;;;;10.40;86.62;99855.16;5028310;28;20351;-65
2023/01/08 02:44:41;;;;;;;9.43;5.60;;;;;;;10.45;86.22;99836.13;5029987;28;20210;-65
2023/01/08 02:47:16;;;;;;;12.80;6.43;;;;;;;10.45;86.29;99839.63;5028980;28;20222;-65
2023/01/08 02:49:50;;;;;;;8.63;5.97;;;;;;;10.45;85.76;99826.38;5029160;28;20345;-68
2023/01/08 02:52:19;;;;;;;10.13;6.40;;;;;;;10.36;85.73;99824.69;5028122;28;20231;-63
2023/01/08 02:54:48;;;;;;;11.13;6.17;;;;;;;10.33;86.67;99810.91;5034551;28;20237;-64
2023/01/08 02:57:21;;;;;;;10.23;6.30;;;;;;;10.41;86.38;99806.47;5032736;28;20234;-65
2023/01/08 02:59:50;;;;;;;10.20;6.40;;;;;;;10.49;85.36;99813.59;5034888;28;20229;-65
2023/01/08 03:02:18;;;;;;;9.30;5.77;;;;;;;10.44;85.85;99808.78;5031183;28;20747;-66
2023/01/08 03:04:52;;;;;;;9.57;6.47;;;;;;;10.40;86.66;99804.81;5028447;28;20214;-64
2023/01/08 03:07:21;;;;;;;9.47;5.87;;;;;;;10.41;86.95;99802.97;5028086;28;20748;-65
2023/01/08 03:09:49;;;;;;;10.13;5.70;;;;;;;10.45;86.92;99801.69;5027219;28;20234;-66
2023/01/08 03:12:23;;;;;;;8.83;5.87;;;;;;;10.40;87.29;99794.19;5028291;28;20216;-66
2023/01/08 03:14:57;;;;;;;9.97;5.93;;;;;;;10.39;87.51;99786.41;5028066;28;20212;-65
2023/01/08 03:17:29;;;;;;;8.43;5.73;;;;;;;10.40;87.92;99783.59;5026457;28;20211;-64
2023/01/08 03:20:02;;;;;;;9.30;6.40;;;;;;;10.39;87.67;99784.59;5025860;28;20208;-65
2023/01/08 03:22:32;;;;;;;9.67;6.37;;;;;;;10.39;88.21;99781.94;5027787;28;20205;-64
2023/01/08 03:25:02;;;;;;;9.40;6.00;;;;;;;10.40;88.55;99772.16;5029825;28;20212;-63
2023/01/08 03:27:35;;;;;;;10.83;6.00;;;;;;;10.43;88.13;99753.28;5024985;28;20207;-64
2023/01/08 03:30:06;;;;;;;9.60;5.93;;;;;;;10.47;88.31;99750.13;5029905;28;20237;-64
2023/01/08 03:32:35;;;;;;;8.57;5.90;;;;;;;10.54;88.04;99748.50;5027994;28;20286;-63
2023/01/08 03:35:06;;;;;;;10.40;5.80;;;;;;;10.59;87.59;99745.34;5027648;28;20954;-66
2023/01/08 03:37:37;;;;;;;12.23;6.47;;;;;;;10.61;87.18;99746.03;5026010;28;20217;-64
2023/01/08 03:40:09;;;;;;;9.37;6.33;;;;;;;10.62;86.88;99745.03;5029128;28;20214;-66
2023/01/08 03:42:38;;;;;;;12.17;5.97;;;;;;;10.59;87.67;99753.31;5030283;28;20218;-64
2023/01/08 03:45:07;;;;;;;10.13;5.87;;;;;;;10.59;87.11;99750.66;5027919;28;20338;-64
2023/01/08 03:47:37;;;;;;;8.83;6.20;;;;;;;10.53;87.11;99751.31;5029685;28;20209;-64
2023/01/08 03:50:11;;;;;;;10.70;5.73;;;;;;;10.50;87.56;99747.16;5028385;28;20233;-66
2023/01/08 03:52:38;;;;;;;9.37;5.57;;;;;;;10.45;88.37;99748.66;5024760;28;20654;-65
2023/01/08 03:55:07;;;;;;;9.87;6.90;;;;;;;10.46;88.47;99745.03;5028675;28;20309;-65
2023/01/08 03:57:34;;;;;;;9.03;6.00;;;;;;;10.45;88.61;99735.41;5025116;28;20241;-64
2023/01/08 04:00:05;;;;;;;7.93;5.70;;;;;;;10.47;88.39;99728.94;5029997;28;20287;-65
2023/01/08 04:02:33;;;;;;;9.40;6.10;;;;;;;10.46;88.72;99719.34;5027547;28;20222;-66
2023/01/08 04:05:01;;;;;;;9.47;5.00;;;;;;;10.39;89.30;99717.50;5029283;28;20296;-66
2023/01/08 04:07:28;;;;;;;10.07;6.47;;;;;;;10.40;89.86;99713.84;5006629;28;20685;-65
2023/01/08 04:09:56;;;;;;;8.47;5.40;;;;;;;10.40;89.93;99714.69;5005698;28;20245;-65
2023/01/08 04:12:24;;;;;;;9.23;5.93;;;;;;;10.48;89.93;99716.50;5004961;28;20214;-66
2023/01/08 04:14:52;;;;;;;7.87;5.03;;;;;;;10.52;89.25;99717.84;5007931;28;20321;-64
2023/01/08 04:17:21;;;;;;;12.97;6.20;;;;;;;10.52;88.94;99713.38;5004822;28;20218;-67
2023/01/08 04:19:48;;;;;;;11.97;6.53;;;;;;;10.48;89.80;99721.81;5004914;28;20218;-65
2023/01/08 04:22:16;;;;;;;10.40;6.17;;;;;;;10.46;90.07;99714.06;5004361;28;20215;-64
2023/01/08 04:24:44;;;;;;;10.27;5.67;;;;;;;10.45;90.15;99722.16;5006440;28;20225;-64
2023/01/08 04:27:11;;;;;;;9.23;5.83;;;;;;;10.46;90.25;99718.53;5007697;28;20693;-64
2023/01/08 04:29:39;;;;;;;9.93;5.37;;;;;;;10.44;90.63;99720.50;5005029;28;20320;-65
2023/01/08 04:32:07;;;;;;;9.33;5.20;;;;;;;10.42;90.80;99717.19;5006524;28;20217;-64
2023/01/08 04:34:36;;;;;;;7.20;4.93;;;;;;;10.45;90.35;99714.22;5005267;28;20321;-65
2023/01/08 04:37:03;;;;;;;8.80;4.77;;;;;;;10.47;89.53;99720.16;5004012;28;20206;-66
2023/01/08 04:39:31;;;;;;;8.23;4.83;;;;;;;10.46;89.78;99718.53;5002691;28;20230;-65
2023/01/08 04:41:59;;;;;;;10.30;5.43;;;;;;;10.41;89.56;99720.81;5006603;28;20207;-64
2023/01/08 04:44:27;;;;;;;9.03;5.27;;;;;;;10.38;89.50;99716.66;5009675;28;20227;-64
2023/01/08 04:46:54;;;;;;;9.73;6.00;;;;;;;10.28;90.63;99715.19;5011939;28;20226;-65
2023/01/08 04:49:22;;;;;;;13.40;5.80;;;;;;;10.33;90.32;99720.81;5010961;28;20245;-64
2023/01/08 04:51:51;;;;;;;9.77;5.30;;;;;;;10.31;90.57;99720.16;5008475;28;20597;-64
2023/01/08 04:54:19;;;;;;;8.77;5.03;;;;;;;10.39;89.80;99728.09;5007815;28;20209;-64
2023/01/08 04:56:50;;;;;;;9.47;5.50;;;;;;;10.39;89.95;99722.81;5012170;28;20443;-65
2023/01/08 04:59:18;;;;;;;8.83;5.80;;;;;;;10.32;90.07;99708.56;5013261;28;20208;-64
2023/01/08 05:01:45;;;;;;;9.43;5.77;;;;;;;10.21;90.71;99709.69;5011617;28;20198;-64
2023/01/08 05:04:13;;;;;;;9.73;5.83;;;;;;;10.21;90.35;99709.69;5009525;28;20268;-67
2023/01/08 05:06:41;;;;;;;10.63;5.67;;;;;;;10.23;90.31;99709.53;5021657;28;20251;-66
2023/01/08 05:09:10;;;;;;;8.27;4.97;;;;;;;10.20;90.33;99709.91;5032770;28;20226;-64
2023/01/08 05:11:38;;;;;;;8.13;5.23;;;;;;;10.17;90.21;99709.22;5031591;28;20245;-64
2023/01/08 05:14:06;;;;;;;8.23;5.10;;;;;;;10.26;89.46;99712.72;5027857;28;20297;-65
2023/01/08 05:16:33;;;;;;;10.00;5.57;;;;;;;10.23;89.47;99717.50;5026352;28;20225;-65
2023/01/08 05:19:01;;;;;;;10.43;4.80;;;;;;;10.20;89.02;99723.97;5023357;28;21196;-64
2023/01/08 05:21:29;;;;;;;6.90;4.47;;;;;;;10.17;88.96;99725.13;5025762;28;20204;-64
2023/01/08 05:23:56;;;;;;;9.03;5.00;;;;;;;10.21;89.17;99714.16;5023871;28;20773;-66
2023/01/08 05:26:25;;;;;;;7.57;4.80;;;;;;;10.22;88.90;99713.19;5025919;28;20579;-65
2023/01/08 05:28:53;;;;;;;8.87;4.73;;;;;;;10.22;88.53;99707.88;5026381;28;20216;-66
2023/01/08 05:31:21;;;;;;;8.63;4.60;;;;;;;10.18;88.95;99700.28;5021903;28;20247;-66
2023/01/08 05:33:50;;;;;;;7.97;4.67;;;;;;;10.14;89.41;99698.91;5024800;28;20251;-66
2023/01/08 05:36:18;;;;;;;7.80;4.70;;;;;;;10.15;89.76;99700.56;5027891;28;20208;-64
2023/01/08 05:38:46;;;;;;;8.17;4.37;;;;;;;10.15;89.83;99700.56;5022120;28;20344;-64
2023/01/08 05:41:13;;;;;;;7.27;4.30;;;;;;;10.12;90.06;99695.59;5024401;28;20206;-66
2023/01/08 05:43:42;;;;;;;7.83;4.50;;;;;;;10.12;90.40;99695.59;5025253;28;20215;-64
2023/01/08 05:46:10;;;;;;;7.33;4.40;;;;;;;10.13;90.54;99697.25;5026704;28;20210;-65
2023/01/08 05:48:38;;;;;;;7.87;4.33;;;;;;;10.17;90.01;99693.31;5025045;28;20869;-65
2023/01/08 05:51:06;;;;;;;8.93;5.07;;;;;;;10.11;89.92;99688.63;5025250;28;20326;-64
2023/01/08 05:53:34;;;;;;;7.17;4.87;;;;;;;10.03;90.36;99696.56;5024530;28;20250;-66
2023/01/08 05:56:04;;;;;;;10.97;5.33;;;;;;;9.94;91.10;99700.19;5023156;28;20217;-66
2023/01/08 05:58:34;;;;;;;6.70;4.20;;;;;;;9.97;90.96;99697.22;5024563;28;20224;-64
2023/01/08 06:01:06;;;;;;;10.30;5.33;;;;;;;9.99;91.45;99703.19;5027166;28;20308;-63
2023/01/08 06:03:34;;;;;;;9.33;4.80;;;;;;;10.02;91.23;99697.59;5023697;28;20812;-64
2023/01/08 06:06:04;;;;;;;7.97;4.50;;;;;;;10.01;91.37;99693.28;5022464;28;20250;-66
2023/01/08 06:08:32;;;;;;;9.73;4.90;;;;;;;9.96;91.88;99694.75;5024061;28;20216;-64
2023/01/08 06:11:01;;;;;;;8.37;4.77;;;;;;;9.95;92.66;99693.06;5026685;28;20364;-64
2023/01/08 06:13:29;;;;;;;7.10;4.37;;;;;;;9.96;92.01;99697.38;5024567;28;20205;-65
2023/01/08 06:15:58;;;;;;;6.47;4.37;;;;;;;9.93;92.46;99701.22;5026181;28;20205;-65
2023/01/08 06:18:29;;;;;;;8.53;4.70;;;;;;;9.91;93.26;99695.25;5022123;28;20216;-67
2023/01/08 06:20:57;;;;;;;9.37;4.20;;;;;;;9.96;92.89;99700.88;5025201;28;20214;-65
2023/01/08 06:23:25;;;;;;;7.57;4.23;;;;;;;9.96;93.06;99687.63;5024626;28;20209;-65
2023/01/08 06:25:53;;;;;;;8.03;4.13;;;;;;;9.93;92.96;99693.28;5021428;28;20243;-67
2023/01/08 06:28:22;;;;;;;6.83;4.10;;;;;;;9.94;93.51;99697.53;5022852;28;20253;-66
2023/01/08 06:30:49;;;;;;;9.33;4.80;;;;;;;9.96;92.75;99695.56;5023914;28;20217;-67
2023/01/08 06:33:18;;;;;;;9.00;5.20;;;;;;;9.98;93.24;99700.72;5026280;28;20201;-67
2023/01/08 06:35:49;;;;;;;7.80;4.23;;;;;;;10.06;93.01;99701.56;5024322;28;20292;-65
2023/01/08 06:38:18;;;;;;;8.93;4.80;;;;;;;10.05;92.60;99702.53;5023813;28;20220;-65
2023/01/08 06:40:46;;;;;;;10.87;4.43;;;;;;;9.98;93.30;99695.41;5020502;28;20220;-67
2023/01/08 06:43:14;;;;;;;8.00;4.77;;;;;;;9.93;94.01;99695.91;5021936;28;20209;-65
2023/01/08 06:45:41;;;;;;;14.80;4.87;;;;;;;9.97;93.91;99702.53;5025543;28;20278;-67
2023/01/08 06:48:09;;;;;;;8.20;4.50;;;;;;;9.91;94.16;99705.84;5028954;28;20399;-65
2023/01/08 06:50:37;;;;;;;8.23;4.37;;;;;;;9.95;94.18;99708.97;5027733;28;20243;-64
2023/01/08 06:53:06;;;;;;;6.67;4.07;;;;;;;9.97;93.50;99702.53;5025189;28;20228;-63
2023/01/08 06:55:34;;;;;;;8.57;4.60;;;;;;;9.92;93.79;99712.78;5024841;28;20221;-65
2023/01/08 06:58:01;;;;;;;7.40;4.50;;;;;;;9.86;94.44;99708.13;5024790;28;20232;-65
2023/01/08 07:00:29;;;;;;;7.80;4.20;;;;;;;9.89;93.92;99710.47;5029629;28;20209;-66
2023/01/08 07:02:57;;;;;;;10.07;4.90;;;;;;;9.83;94.34;99705.81;5028430;28;21119;-64
2023/01/08 07:05:27;;;;;;;9.33;4.10;;;;;;;9.78;95.18;99697.50;5031189;28;20247;-65
2023/01/08 07:07:57;;;;;;;6.73;4.23;;;;;;;9.83;94.49;99700.53;5027703;28;20203;-67
2023/01/08 07:10:26;;;;;;;8.50;3.83;;;;;;;9.75;95.07;99693.41;5033462;28;20213;-65
2023/01/08 07:12:54;;;;;;;9.73;4.43;;;;;;;9.72;95.29;99692.88;5037711;28;20232;-64
2023/01/08 07:15:22;;;;;;;8.23;4.17;;;;;;;9.74;95.47;99699.69;5033350;28;20216;-64
2023/01/08 07:17:50;;;;;;;8.90;4.40;;;;;;;9.78;95.04;99701.00;5030100;28;20217;-63
2023/01/08 07:20:17;;;;;;;7.17;4.20;;;;;;;9.78;94.84;99706.28;5034428;28;20557;-66
2023/01/08 07:22:45;;;;;;;6.90;4.20;;;;;;;9.76;95.43;99715.41;5028431;28;20552;-65
2023/01/08 07:25:13;;;;;;;6.97;4.40;;;;;;;9.76;95.73;99715.41;5033995;28;20213;-64
2023/01/08 07:27:42;;;;;;;7.90;4.80;;;;;;;9.78;95.26;99708.09;5028228;28;20205;-66
2023/01/08 07:30:10;;;;;;;6.43;4.07;;;;;;;9.83;94.68;99713.75;5030907;28;20212;-66
2023/01/08 07:32:58;;;;;;;9.37;4.27;;;;;;;9.76;95.22;99715.41;5034778;28;20680;-65
2023/01/08 07:35:26;;;;;;;6.57;3.87;;;;;;;9.71;95.56;99707.09;5031941;28;20251;-66
2023/01/08 07:37:54;;;;;;;5.60;3.60;;;;;;;9.64;96.30;99711.38;5029423;28;20220;-66
2023/01/08 07:40:22;;;;;;;6.37;4.27;;;;;;;9.67;96.30;99708.41;5032437;28;20322;-64
2023/01/08 07:42:59;;;;;;;7.67;4.13;;;;;;;9.74;95.85;99704.13;5030316;28;20216;-64
2023/01/08 07:45:27;;;;;;;7.53;4.27;;;;;;;9.77;95.33;99714.38;5031315;28;20215;-66
2023/01/08 07:47:56;;;;;;;5.87;3.67;;;;;;;9.76;95.39;99716.19;5030643;28;20219;-68
2023/01/08 07:50:24;;;;;;;5.80;3.53;;;;;;;9.75;95.56;99714.56;5030635;28;20208;-67
2023/01/08 07:52:52;;;;;;;5.27;3.60;;;;;;;9.79;95.42;99723.00;5030427;28;20229;-68
2023/01/08 07:55:21;;;;;;;6.13;3.63;;;;;;;9.81;94.91;99724.50;5029813;28;20696;-68
2023/01/08 07:57:49;;;;;;;6.77;3.53;;;;;;;9.78;95.14;99729.28;5032864;28;20252;-68
2023/01/08 08:00:18;;;;;;;7.47;3.90;;;;;;;9.85;95.31;99724.19;5031785;28;20659;-68
2023/01/08 08:02:46;;;;;;;6.20;4.00;;;;;;;9.90;94.52;99725.34;5032665;28;20204;-67
2023/01/08 08:05:16;;;;;;;5.63;3.73;;;;;;;9.95;94.13;99730.16;5031234;28;20213;-67
2023/01/08 08:07:44;;;;;;;6.07;3.43;;;;;;;9.93;94.09;99729.50;5030354;28;20681;-67
2023/01/08 08:10:12;;;;;;;8.20;4.17;;;;;;;9.95;93.76;99735.44;5028018;28;20266;-67
2023/01/08 08:12:40;;;;;;;9.93;4.50;;;;;;;9.92;94.23;99728.69;5031039;28;20682;-68
2023/01/08 08:15:09;;;;;;;8.27;4.80;;;;;;;9.92;93.89;99720.75;5028237;28;20950;-68
2023/01/08 08:17:38;;;;;;;6.87;4.40;;;;;;;9.87;94.39;99720.38;5025898;28;20209;-68
2023/01/08 08:20:06;;;;;;;10.80;5.43;;;;;;;9.88;94.60;99719.38;5027597;28;20212;-67
2023/01/08 08:22:34;;;;;;;9.23;5.60;;;;;;;9.97;94.42;99723.72;5025405;28;20197;-67
2023/01/08 08:25:02;;;;;;;9.70;5.30;;;;;;;9.94;94.08;99718.72;5028928;28;20212;-67
2023/01/08 08:27:30;;;;;;;8.80;5.23;;;;;;;9.86;95.11;99721.34;5027004;28;20304;-67
2023/01/08 08:29:57;;;;;;;8.13;5.37;;;;;;;9.96;95.03;99721.22;5028430;28;20221;-67
2023/01/08 08:32:25;;;;;;;8.83;4.70;;;;;;;9.99;95.03;99716.44;5026152;28;20329;-67
2023/01/08 08:34:54;;;;;;;7.87;4.70;;;;;;;9.95;94.78;99723.03;5030948;28;20742;-67
2023/01/08 08:37:22;;;;;;;5.97;4.10;;;;;;;9.96;94.92;99716.75;5024703;28;20216;-66
2023/01/08 08:39:49;;;;;;;7.97;4.63;;;;;;;9.92;95.46;99717.25;5033330;28;20205;-67
2023/01/08 08:42:17;;;;;;;6.37;4.30;;;;;;;9.92;95.77;99714.59;5024166;28;20204;-67
2023/01/08 08:44:45;;;;;;;9.80;4.63;;;;;;;9.90;95.87;99714.78;5033893;28;20214;-68
2023/01/08 08:47:13;;;;;;;8.33;4.47;;;;;;;9.80;96.68;99709.59;5025158;28;20217;-67
2023/01/08 08:49:41;;;;;;;6.63;4.17;;;;;;;9.81;97.61;99713.09;5026696;28;20205;-67
2023/01/08 08:52:10;;;;;;;9.60;4.80;;;;;;;9.85;97.59;99713.59;5028981;28;20206;-68
2023/01/08 08:54:40;;;;;;;9.13;5.60;;;;;;;9.88;97.17;99714.09;5027862;28;20214;-67
2023/01/08 08:57:08;;;;;;;8.93;4.60;;;;;;;9.89;97.12;99702.50;5027588;28;20281;-68
2023/01/08 08:59:36;;;;;;;8.90;4.80;;;;;;;9.94;96.85;99700.19;5026218;28;20257;-67
2023/01/08 09:02:04;;;;;;;7.33;4.83;;;;;;;9.94;96.90;99705.50;5024410;28;20256;-67
2023/01/08 09:04:33;;;;;;;7.50;4.43;;;;;;;9.88;97.61;99697.38;5027695;28;20214;-67
2023/01/08 09:07:01;;;;;;;7.03;4.47;;;;;;;9.95;96.86;99709.78;5027177;28;20255;-68
2023/01/08 09:09:30;;;;;;;11.43;4.73;;;;;;;9.95;96.98;99715.09;5028257;28;20320;-68
2023/01/08 09:11:58;;;;;;;8.53;3.90;;;;;;;9.99;96.93;99705.84;5024770;28;20213;-68
2023/01/08 09:14:26;;;;;;;7.00;4.50;;;;;;;10.01;96.97;99714.47;5027047;28;20233;-68
2023/01/08 09:16:54;;;;;;;6.20;4.43;;;;;;;10.02;97.12;99710.84;5027497;28;20753;-68
2023/01/08 09:19:22;;;;;;;7.00;4.13;;;;;;;10.14;96.38;99706.03;5028113;28;20253;-68
2023/01/08 09:21:50;;;;;;;6.63;4.10;;;;;;;10.03;96.37;99707.16;5029154;28;20919;-68
2023/01/08 09:24:18;;;;;;;8.03;4.50;;;;;;;10.09;96.55;99717.13;5025586;28;20210;-68
2023/01/08 09:26:47;;;;;;;10.37;4.57;;;;;;;10.12;95.90;99714.13;5026010;28;20287;-68
2023/01/08 09:29:15;;;;;;;9.83;4.37;;;;;;;10.06;96.73;99709.50;5026072;28;20630;-68
2023/01/08 09:31:42;;;;;;;8.80;4.93;;;;;;;10.03;97.37;99707.16;5026543;28;20201;-68
2023/01/08 09:34:10;;;;;;;7.57;4.60;;;;;;;10.04;97.28;99718.59;5028462;28;20263;-68
2023/01/08 09:36:38;;;;;;;8.27;4.63;;;;;;;10.02;97.54;99715.28;5025999;28;20294;-69
2023/01/08 09:39:06;;;;;;;8.60;4.90;;;;;;;10.04;97.99;99714.13;5028120;28;20299;-68
2023/01/08 09:41:38;;;;;;;9.87;4.30;;;;;;;10.07;97.41;99712.97;5026860;28;20212;-68
2023/01/08 09:44:07;;;;;;;8.13;4.37;;;;;;;10.12;96.91;99710.66;5025865;28;20216;-68
2023/01/08 09:46:36;;;;;;;7.20;3.90;;;;;;;10.12;97.02;99695.59;5028491;28;20210;-69
2023/01/08 09:49:06;;;;;;;6.37;4.13;;;;;;;10.23;96.16;99707.72;5027706;28;20292;-69
2023/01/08 09:51:36;;;;;;;8.57;4.33;;;;;;;10.22;95.92;99702.59;5027150;28;20297;-68
2023/01/08 09:54:06;;;;;;;7.73;4.57;;;;;;;10.19;96.70;99703.75;5028094;28;20224;-69
2023/01/08 09:56:35;;;;;;;5.63;3.83;;;;;;;10.23;96.35;99704.25;5026454;28;20211;-69
2023/01/08 09:59:04;;;;;;;6.73;3.60;;;;;;;10.26;95.97;99709.22;5024434;28;20289;-68
2023/01/08 10:01:38;;;;;;;8.43;3.67;;;;;;;10.20;96.00;99701.94;5026295;28;20263;-69
2023/01/08 10:04:13;;;;;;;5.57;3.20;;;;;;;10.22;96.17;99705.22;5024282;28;20273;-69
2023/01/08 10:06:41;;;;;;;4.97;3.47;;;;;;;10.23;96.46;99698.94;5020636;28;20243;-69
2023/01/08 10:09:14;;;;;;;6.00;4.03;;;;;;;10.33;96.13;99705.75;5024636;28;20212;-68
2023/01/08 10:11:46;;;;;;;5.93;3.70;;;;;;;10.41;94.57;99694.31;5023408;28;20198;-69
2023/01/08 10:14:22;;;;;;;5.90;3.60;;;;;;;10.33;95.19;99699.63;5023747;28;21970;-68
2023/01/08 10:16:55;;;;;;;6.70;4.00;;;;;;;10.34;95.76;99691.50;5023543;28;20207;-69
2023/01/08 10:19:24;;;;;;;8.17;3.97;;;;;;;10.38;95.46;99695.47;5026278;28;20308;-68
2023/01/08 10:21:52;;;;;;;8.03;3.93;;;;;;;10.41;95.47;99684.53;5021183;28;20221;-69
2023/01/08 10:24:31;;;;;;;7.03;3.93;;;;;;;10.50;94.82;99696.81;5024728;28;20209;-69
2023/01/08 10:27:06;;;;;;;6.40;3.97;;;;;;;10.47;95.07;99693.66;5026574;28;20226;-68
2023/01/08 10:29:33;;;;;;;5.40;3.93;;;;;;;10.46;95.17;99695.50;5028843;28;20297;-69
2023/01/08 10:32:09;;;;;;;6.50;3.87;;;;;;;10.46;95.55;99698.16;5024725;28;20212;-68
2023/01/08 10:34:44;;;;;;;8.03;4.00;;;;;;;10.52;95.45;99686.03;5026741;28;20218;-67
2023/01/08 10:37:22;;;;;;;6.27;4.20;;;;;;;10.55;95.35;99689.16;5024833;28;21088;-68
2023/01/08 10:39:51;;;;;;;6.30;3.57;;;;;;;10.60;95.00;99682.56;5030008;28;20213;-67
2023/01/08 10:42:21;;;;;;;6.00;3.60;;;;;;;10.71;93.99;99672.44;5033591;28;20609;-68
2023/01/08 10:44:54;;;;;;;8.87;4.37;;;;;;;10.81;92.86;99672.25;5035323;28;20210;-68
2023/01/08 10:47:25;;;;;;;7.27;4.30;;;;;;;11.01;92.04;99670.03;5033499;28;20630;-67
2023/01/08 10:49:54;;;;;;;6.70;3.60;;;;;;;11.55;91.08;99669.16;5034564;28;20842;-68
2023/01/08 10:52:28;;;;;;;6.43;3.50;;;;;;;12.65;85.08;99656.44;5030049;28;20252;-68
2023/01/08 10:54:56;;;;;;;7.27;3.10;;;;;;;14.17;77.60;99651.19;5032422;28;20231;-68
2023/01/08 10:57:26;;;;;;;5.47;2.70;;;;;;;15.85;67.97;99639.31;5031700;28;20243;-68
2023/01/08 10:59:55;;;;;;;7.20;3.50;;;;;;;18.35;59.85;99630.66;5030888;28;20725;-68
2023/01/08 11:02:34;;;;;;;5.70;3.20;;;;;;;19.66;52.55;99624.97;5027803;28;21205;-67
2023/01/08 11:05:09;;;;;;;3.43;2.03;;;;;;;18.27;54.07;99627.41;5027833;28;20236;-66
2023/01/08 11:07:39;;;;;;;2.97;1.87;;;;;;;16.31;59.74;99627.84;5009302;28;20220;-68
2023/01/08 11:10:21;;;;;;;4.20;2.37;;;;;;;15.26;64.11;99626.53;5006833;28;20209;-69
2023/01/08 11:12:55;;;;;;;4.43;2.53;;;;;;;14.27;68.23;99625.84;5006788;28;20209;-69
2023/01/08 11:15:36;;;;;;;4.57;2.47;;;;;;;13.72;71.09;99621.22;5013315;28;20618;-69
2023/01/08 11:18:11;;;;;;;4.60;2.37;;;;;;;13.36;72.82;99618.59;5009441;28;20219;-69
2023/01/08 11:20:40;;;;;;;5.80;2.53;;;;;;;13.02;74.62;99619.13;5013035;28;20205;-69
2023/01/08 11:23:16;;;;;;;4.60;2.40;;;;;;;12.69;76.69;99613.34;5006957;28;20214;-69
2023/01/08 11:25:48;;;;;;;4.20;2.33;;;;;;;12.30;78.14;99610.91;5004907;28;20292;-69
2023/01/08 11:28:24;;;;;;;3.77;1.97;;;;;;;12.16;79.16;99605.53;5008117;28;20647;-69
2023/01/08 11:30:57;;;;;;;3.87;2.10;;;;;;;11.92;80.70;99601.25;5008783;28;20235;-69
2023/01/08 11:33:32;;;;;;;5.47;2.90;;;;;;;11.97;80.94;99588.25;5006136;28;20309;-68
2023/01/08 11:36:08;;;;;;;5.07;1.87;;;;;;;12.01;80.93;99584.25;5007512;28;20201;-68
2023/01/08 11:38:35;;;;;;;5.30;2.33;;;;;;;12.10;81.05;99577.84;5012733;28;20223;-69
2023/01/08 11:41:16;;;;;;;11.53;3.20;;;;;;;12.20;82.94;99581.09;5014611;28;20213;-67
2023/01/08 11:44:02;;;;;;;5.90;1.93;;;;;;;12.32;80.48;99587.59;5011395;28;20228;-68
2023/01/08 11:46:40;;;;;;;5.87;2.03;;;;;;;12.40;79.43;99574.22;5006973;28;20296;-68